sensor_id;sensor_type;location;lat;lon;timestamp;P1;durP1;ratioP1;P2;durP2;ratioP2
14346;SDS011;7257;52.158;9.968;2023-03-11T00:00:10;13.27;;;9.80;;
14346;SDS011;7257;52.158;9.968;2023-03-11T00:00:33;12.77;;;9.88;;
14346;SDS011;7257;52.158;9.968;2023-03-11T00:00:56;11.75;;;9.27;;
14346;SDS011;7257;52.158;9.968;2023-03-11T00:01:18;11.45;;;9.32;;
14346;SDS011;7257;52.158;9.968;2023-03-11T00:01:39;11.00;;;9.32;;
14346;SDS011;7257;52.158;9.968;2023-03-11T00:02:00;10.63;;;9.25;;
14346;SDS011;7257;52.158;9.968;2023-03-11T00:02:22;10.23;;;8.98;;
14346;SDS011;7257;52.158;9.968;2023-03-11T00:02:43;10.20;;;8.70;;
14346;SDS011;7257;52.158;9.968;2023-03-11T00:03:05;11.48;;;9.52;;
14346;SDS011;7257;52.158;9.968;2023-03-11T00:03:27;12.55;;;10.00;;
14346;SDS011;7257;52.158;9.968;2023-03-11T00:03:49;12.75;;;9.68;;
14346;SDS011;7257;52.158;9.968;2023-03-11T00:04:10;11.55;;;9.05;;
14346;SDS011;7257;52.158;9.968;2023-03-11T00:04:31;10.02;;;8.38;;
14346;SDS011;7257;52.158;9.968;2023-03-11T00:04:52;11.43;;;8.90;;
14346;SDS011;7257;52.158;9.968;2023-03-11T00:05:14;13.05;;;9.32;;
14346;SDS011;7257;52.158;9.968;2023-03-11T00:05:39;14.50;;;9.68;;
14346;SDS011;7257;52.158;9.968;2023-03-11T00:06:02;12.48;;;9.07;;
14346;SDS011;7257;52.158;9.968;2023-03-11T00:06:23;12.63;;;9.20;;
14346;SDS011;7257;52.158;9.968;2023-03-11T00:06:45;12.60;;;9.30;;
14346;SDS011;7257;52.158;9.968;2023-03-11T00:07:07;11.88;;;8.90;;
14346;SDS011;7257;52.158;9.968;2023-03-11T00:07:29;11.13;;;8.63;;
14346;SDS011;7257;52.158;9.968;2023-03-11T00:07:50;10.77;;;7.88;;
14346;SDS011;7257;52.158;9.968;2023-03-11T00:08:12;10.75;;;8.43;;
14346;SDS011;7257;52.158;9.968;2023-03-11T00:08:36;10.63;;;8.32;;
14346;SDS011;7257;52.158;9.968;2023-03-11T00:08:57;10.32;;;8.60;;
14346;SDS011;7257;52.158;9.968;2023-03-11T00:09:18;10.27;;;8.70;;
14346;SDS011;7257;52.158;9.968;2023-03-11T00:09:39;11.88;;;8.90;;
14346;SDS011;7257;52.158;9.968;2023-03-11T00:09:59;12.10;;;9.07;;
14346;SDS011;7257;52.158;9.968;2023-03-11T00:10:22;12.38;;;9.20;;
14346;SDS011;7257;52.158;9.968;2023-03-11T00:10:45;11.32;;;8.82;;
14346;SDS011;7257;52.158;9.968;2023-03-11T00:11:07;11.13;;;8.50;;
14346;SDS011;7257;52.158;9.968;2023-03-11T00:11:29;10.15;;;8.23;;
14346;SDS011;7257;52.158;9.968;2023-03-11T00:11:51;11.55;;;8.57;;
14346;SDS011;7257;52.158;9.968;2023-03-11T00:12:12;13.05;;;9.45;;
14346;SDS011;7257;52.158;9.968;2023-03-11T00:12:33;13.35;;;9.60;;
14346;SDS011;7257;52.158;9.968;2023-03-11T00:12:54;13.55;;;9.65;;
14346;SDS011;7257;52.158;9.968;2023-03-11T00:13:15;13.27;;;8.85;;
14346;SDS011;7257;52.158;9.968;2023-03-11T00:13:38;12.90;;;8.48;;
14346;SDS011;7257;52.158;9.968;2023-03-11T00:14:00;10.85;;;7.75;;
14346;SDS011;7257;52.158;9.968;2023-03-11T00:14:20;9.98;;;7.55;;
14346;SDS011;7257;52.158;9.968;2023-03-11T00:14:41;10.32;;;7.88;;
14346;SDS011;7257;52.158;9.968;2023-03-11T00:15:02;10.45;;;7.80;;
14346;SDS011;7257;52.158;9.968;2023-03-11T00:15:25;10.57;;;8.55;;
14346;SDS011;7257;52.158;9.968;2023-03-11T00:15:47;9.93;;;8.25;;
14346;SDS011;7257;52.158;9.968;2023-03-11T00:16:09;8.93;;;7.53;;
14346;SDS011;7257;52.158;9.968;2023-03-11T00:16:31;8.38;;;7.03;;
14346;SDS011;7257;52.158;9.968;2023-03-11T00:16:52;7.75;;;6.80;;
14346;SDS011;7257;52.158;9.968;2023-03-11T00:17:13;8.30;;;6.82;;
14346;SDS011;7257;52.158;9.968;2023-03-11T00:17:34;8.13;;;6.50;;
14346;SDS011;7257;52.158;9.968;2023-03-11T00:17:55;10.07;;;6.72;;
14346;SDS011;7257;52.158;9.968;2023-03-11T00:18:18;10.38;;;6.95;;
14346;SDS011;7257;52.158;9.968;2023-03-11T00:18:38;11.25;;;7.65;;
14346;SDS011;7257;52.158;9.968;2023-03-11T00:18:59;11.25;;;8.20;;
14346;SDS011;7257;52.158;9.968;2023-03-11T00:19:20;11.25;;;8.35;;
14346;SDS011;7257;52.158;9.968;2023-03-11T00:19:42;10.60;;;8.15;;
14346;SDS011;7257;52.158;9.968;2023-03-11T00:20:04;8.95;;;7.28;;
14346;SDS011;7257;52.158;9.968;2023-03-11T00:20:26;8.52;;;6.78;;
14346;SDS011;7257;52.158;9.968;2023-03-11T00:20:48;8.52;;;6.90;;
14346;SDS011;7257;52.158;9.968;2023-03-11T00:21:13;8.88;;;6.82;;
14346;SDS011;7257;52.158;9.968;2023-03-11T00:21:35;8.20;;;6.20;;
14346;SDS011;7257;52.158;9.968;2023-03-11T00:21:56;8.05;;;6.63;;
14346;SDS011;7257;52.158;9.968;2023-03-11T00:22:17;8.65;;;7.10;;
14346;SDS011;7257;52.158;9.968;2023-03-11T00:22:39;8.93;;;7.53;;
14346;SDS011;7257;52.158;9.968;2023-03-11T00:23:00;9.00;;;7.13;;
14346;SDS011;7257;52.158;9.968;2023-03-11T00:23:21;7.65;;;6.57;;
14346;SDS011;7257;52.158;9.968;2023-03-11T00:23:45;7.78;;;6.53;;
14346;SDS011;7257;52.158;9.968;2023-03-11T00:24:06;9.07;;;6.60;;
14346;SDS011;7257;52.158;9.968;2023-03-11T00:24:27;8.95;;;6.53;;
14346;SDS011;7257;52.158;9.968;2023-03-11T00:24:48;7.45;;;5.93;;
14346;SDS011;7257;52.158;9.968;2023-03-11T00:25:10;7.97;;;6.22;;
14346;SDS011;7257;52.158;9.968;2023-03-11T00:25:32;9.35;;;6.70;;
14346;SDS011;7257;52.158;9.968;2023-03-11T00:25:55;9.68;;;6.63;;
14346;SDS011;7257;52.158;9.968;2023-03-11T00:26:15;7.57;;;5.63;;
14346;SDS011;7257;52.158;9.968;2023-03-11T00:26:39;6.68;;;5.20;;
14346;SDS011;7257;52.158;9.968;2023-03-11T00:27:00;6.90;;;5.65;;
14346;SDS011;7257;52.158;9.968;2023-03-11T00:27:21;6.90;;;5.90;;
14346;SDS011;7257;52.158;9.968;2023-03-11T00:27:41;6.57;;;5.60;;
14346;SDS011;7257;52.158;9.968;2023-03-11T00:28:03;6.53;;;5.20;;
14346;SDS011;7257;52.158;9.968;2023-03-11T00:28:26;6.53;;;5.55;;
14346;SDS011;7257;52.158;9.968;2023-03-11T00:28:47;6.75;;;5.82;;
14346;SDS011;7257;52.158;9.968;2023-03-11T00:29:08;7.43;;;6.03;;
14346;SDS011;7257;52.158;9.968;2023-03-11T00:29:29;7.75;;;5.70;;
14346;SDS011;7257;52.158;9.968;2023-03-11T00:29:51;7.15;;;5.55;;
14346;SDS011;7257;52.158;9.968;2023-03-11T00:30:12;6.90;;;5.47;;
14346;SDS011;7257;52.158;9.968;2023-03-11T00:30:35;6.18;;;5.30;;
14346;SDS011;7257;52.158;9.968;2023-03-11T00:30:57;6.15;;;5.35;;
14346;SDS011;7257;52.158;9.968;2023-03-11T00:31:19;6.32;;;5.35;;
14346;SDS011;7257;52.158;9.968;2023-03-11T00:31:39;6.88;;;5.95;;
14346;SDS011;7257;52.158;9.968;2023-03-11T00:32:00;7.15;;;6.30;;
14346;SDS011;7257;52.158;9.968;2023-03-11T00:32:21;7.45;;;6.75;;
14346;SDS011;7257;52.158;9.968;2023-03-11T00:32:42;7.22;;;6.50;;
14346;SDS011;7257;52.158;9.968;2023-03-11T00:33:04;7.03;;;6.18;;
14346;SDS011;7257;52.158;9.968;2023-03-11T00:33:25;6.80;;;5.63;;
14346;SDS011;7257;52.158;9.968;2023-03-11T00:33:46;7.50;;;5.90;;
14346;SDS011;7257;52.158;9.968;2023-03-11T00:34:07;7.30;;;5.70;;
14346;SDS011;7257;52.158;9.968;2023-03-11T00:34:29;6.90;;;5.45;;
14346;SDS011;7257;52.158;9.968;2023-03-11T00:34:50;6.13;;;5.13;;
14346;SDS011;7257;52.158;9.968;2023-03-11T00:35:11;6.22;;;4.88;;
14346;SDS011;7257;52.158;9.968;2023-03-11T00:35:34;7.10;;;5.50;;
14346;SDS011;7257;52.158;9.968;2023-03-11T00:35:55;6.90;;;5.40;;
14346;SDS011;7257;52.158;9.968;2023-03-11T00:36:20;7.50;;;5.47;;
14346;SDS011;7257;52.158;9.968;2023-03-11T00:36:43;7.80;;;5.60;;
14346;SDS011;7257;52.158;9.968;2023-03-11T00:37:04;7.05;;;5.32;;
14346;SDS011;7257;52.158;9.968;2023-03-11T00:37:25;6.07;;;5.07;;
14346;SDS011;7257;52.158;9.968;2023-03-11T00:37:46;6.70;;;4.63;;
14346;SDS011;7257;52.158;9.968;2023-03-11T00:38:10;6.18;;;4.45;;
14346;SDS011;7257;52.158;9.968;2023-03-11T00:38:34;5.15;;;4.50;;
14346;SDS011;7257;52.158;9.968;2023-03-11T00:38:55;4.93;;;4.17;;
14346;SDS011;7257;52.158;9.968;2023-03-11T00:39:16;5.70;;;4.70;;
14346;SDS011;7257;52.158;9.968;2023-03-11T00:39:37;5.65;;;5.05;;
14346;SDS011;7257;52.158;9.968;2023-03-11T00:39:58;6.10;;;5.13;;
14346;SDS011;7257;52.158;9.968;2023-03-11T00:40:20;6.05;;;4.80;;
14346;SDS011;7257;52.158;9.968;2023-03-11T00:40:42;5.55;;;4.72;;
14346;SDS011;7257;52.158;9.968;2023-03-11T00:41:06;5.90;;;5.30;;
14346;SDS011;7257;52.158;9.968;2023-03-11T00:41:26;6.28;;;5.68;;
14346;SDS011;7257;52.158;9.968;2023-03-11T00:41:49;6.60;;;6.00;;
14346;SDS011;7257;52.158;9.968;2023-03-11T00:42:10;6.22;;;5.63;;
14346;SDS011;7257;52.158;9.968;2023-03-11T00:42:31;6.90;;;5.78;;
14346;SDS011;7257;52.158;9.968;2023-03-11T00:42:53;6.60;;;5.63;;
14346;SDS011;7257;52.158;9.968;2023-03-11T00:43:14;7.95;;;5.97;;
14346;SDS011;7257;52.158;9.968;2023-03-11T00:43:35;7.22;;;5.93;;
14346;SDS011;7257;52.158;9.968;2023-03-11T00:43:58;7.53;;;6.25;;
14346;SDS011;7257;52.158;9.968;2023-03-11T00:44:19;6.85;;;5.68;;
14346;SDS011;7257;52.158;9.968;2023-03-11T00:44:40;7.25;;;5.22;;
14346;SDS011;7257;52.158;9.968;2023-03-11T00:45:01;6.35;;;5.13;;
14346;SDS011;7257;52.158;9.968;2023-03-11T00:45:22;6.20;;;5.35;;
14346;SDS011;7257;52.158;9.968;2023-03-11T00:45:44;5.70;;;5.18;;
14346;SDS011;7257;52.158;9.968;2023-03-11T00:46:05;6.38;;;5.47;;
14346;SDS011;7257;52.158;9.968;2023-03-11T00:46:26;6.75;;;5.57;;
14346;SDS011;7257;52.158;9.968;2023-03-11T00:46:48;6.35;;;5.55;;
14346;SDS011;7257;52.158;9.968;2023-03-11T00:47:10;5.97;;;5.20;;
14346;SDS011;7257;52.158;9.968;2023-03-11T00:47:32;6.20;;;4.95;;
14346;SDS011;7257;52.158;9.968;2023-03-11T00:47:53;6.70;;;5.40;;
14346;SDS011;7257;52.158;9.968;2023-03-11T00:48:14;6.80;;;5.45;;
14346;SDS011;7257;52.158;9.968;2023-03-11T00:48:35;6.45;;;5.13;;
14346;SDS011;7257;52.158;9.968;2023-03-11T00:48:57;6.18;;;4.82;;
14346;SDS011;7257;52.158;9.968;2023-03-11T00:49:18;6.87;;;5.30;;
14346;SDS011;7257;52.158;9.968;2023-03-11T00:49:39;6.40;;;5.00;;
14346;SDS011;7257;52.158;9.968;2023-03-11T00:50:00;6.10;;;4.97;;
14346;SDS011;7257;52.158;9.968;2023-03-11T00:50:23;5.38;;;4.88;;
14346;SDS011;7257;52.158;9.968;2023-03-11T00:50:46;6.05;;;5.30;;
14346;SDS011;7257;52.158;9.968;2023-03-11T00:51:08;7.43;;;5.68;;
14346;SDS011;7257;52.158;9.968;2023-03-11T00:51:32;7.03;;;5.55;;
14346;SDS011;7257;52.158;9.968;2023-03-11T00:51:54;6.05;;;4.88;;
14346;SDS011;7257;52.158;9.968;2023-03-11T00:52:15;5.43;;;4.80;;
14346;SDS011;7257;52.158;9.968;2023-03-11T00:52:35;6.18;;;5.00;;
14346;SDS011;7257;52.158;9.968;2023-03-11T00:52:58;6.90;;;5.30;;
14346;SDS011;7257;52.158;9.968;2023-03-11T00:53:20;6.45;;;5.65;;
14346;SDS011;7257;52.158;9.968;2023-03-11T00:53:40;6.17;;;5.50;;
14346;SDS011;7257;52.158;9.968;2023-03-11T00:54:01;5.88;;;5.25;;
14346;SDS011;7257;52.158;9.968;2023-03-11T00:54:23;5.50;;;4.70;;
14346;SDS011;7257;52.158;9.968;2023-03-11T00:54:43;5.43;;;4.78;;
14346;SDS011;7257;52.158;9.968;2023-03-11T00:55:06;5.55;;;4.88;;
14346;SDS011;7257;52.158;9.968;2023-03-11T00:55:28;6.20;;;5.60;;
14346;SDS011;7257;52.158;9.968;2023-03-11T00:55:50;6.38;;;5.75;;
14346;SDS011;7257;52.158;9.968;2023-03-11T00:56:13;6.72;;;5.78;;
14346;SDS011;7257;52.158;9.968;2023-03-11T00:56:35;7.20;;;5.90;;
14346;SDS011;7257;52.158;9.968;2023-03-11T00:56:59;6.55;;;5.78;;
14346;SDS011;7257;52.158;9.968;2023-03-11T00:57:19;6.25;;;5.60;;
14346;SDS011;7257;52.158;9.968;2023-03-11T00:57:40;6.80;;;5.35;;
14346;SDS011;7257;52.158;9.968;2023-03-11T00:58:05;6.80;;;4.85;;
14346;SDS011;7257;52.158;9.968;2023-03-11T00:58:27;6.22;;;4.47;;
14346;SDS011;7257;52.158;9.968;2023-03-11T00:58:49;5.60;;;4.80;;
14346;SDS011;7257;52.158;9.968;2023-03-11T00:59:10;5.70;;;4.78;;
14346;SDS011;7257;52.158;9.968;2023-03-11T00:59:32;5.50;;;4.82;;
14346;SDS011;7257;52.158;9.968;2023-03-11T00:59:54;6.10;;;5.10;;
14346;SDS011;7257;52.158;9.968;2023-03-11T01:00:18;6.30;;;5.13;;
14346;SDS011;7257;52.158;9.968;2023-03-11T01:00:40;6.47;;;4.97;;
14346;SDS011;7257;52.158;9.968;2023-03-11T01:01:05;7.00;;;4.80;;
14346;SDS011;7257;52.158;9.968;2023-03-11T01:01:27;5.88;;;4.60;;
14346;SDS011;7257;52.158;9.968;2023-03-11T01:01:48;6.28;;;4.93;;
14346;SDS011;7257;52.158;9.968;2023-03-11T01:02:09;5.82;;;4.65;;
14346;SDS011;7257;52.158;9.968;2023-03-11T01:02:30;5.97;;;4.50;;
14346;SDS011;7257;52.158;9.968;2023-03-11T01:02:52;5.22;;;4.22;;
14346;SDS011;7257;52.158;9.968;2023-03-11T01:03:14;5.43;;;4.60;;
14346;SDS011;7257;52.158;9.968;2023-03-11T01:03:36;5.72;;;5.05;;
14346;SDS011;7257;52.158;9.968;2023-03-11T01:03:57;6.40;;;5.00;;
14346;SDS011;7257;52.158;9.968;2023-03-11T01:04:18;6.35;;;5.05;;
14346;SDS011;7257;52.158;9.968;2023-03-11T01:04:39;6.10;;;4.65;;
14346;SDS011;7257;52.158;9.968;2023-03-11T01:05:01;5.40;;;4.40;;
14346;SDS011;7257;52.158;9.968;2023-03-11T01:05:23;5.13;;;4.25;;
14346;SDS011;7257;52.158;9.968;2023-03-11T01:05:45;4.82;;;4.30;;
14346;SDS011;7257;52.158;9.968;2023-03-11T01:06:07;5.68;;;4.80;;
14346;SDS011;7257;52.158;9.968;2023-03-11T01:06:28;5.72;;;4.63;;
14346;SDS011;7257;52.158;9.968;2023-03-11T01:06:49;5.57;;;4.53;;
14346;SDS011;7257;52.158;9.968;2023-03-11T01:07:10;4.97;;;4.20;;
14346;SDS011;7257;52.158;9.968;2023-03-11T01:07:31;4.97;;;4.20;;
14346;SDS011;7257;52.158;9.968;2023-03-11T01:07:52;5.55;;;4.45;;
14346;SDS011;7257;52.158;9.968;2023-03-11T01:08:14;5.55;;;4.72;;
14346;SDS011;7257;52.158;9.968;2023-03-11T01:08:35;5.72;;;4.85;;
14346;SDS011;7257;52.158;9.968;2023-03-11T01:08:56;6.15;;;4.78;;
14346;SDS011;7257;52.158;9.968;2023-03-11T01:09:17;6.67;;;4.87;;
14346;SDS011;7257;52.158;9.968;2023-03-11T01:09:38;6.07;;;4.43;;
14346;SDS011;7257;52.158;9.968;2023-03-11T01:10:00;6.07;;;4.55;;
14346;SDS011;7257;52.158;9.968;2023-03-11T01:10:21;5.70;;;4.38;;
14346;SDS011;7257;52.158;9.968;2023-03-11T01:10:42;5.85;;;4.50;;
14346;SDS011;7257;52.158;9.968;2023-03-11T01:11:04;5.05;;;4.32;;
14346;SDS011;7257;52.158;9.968;2023-03-11T01:11:27;4.82;;;4.32;;
14346;SDS011;7257;52.158;9.968;2023-03-11T01:11:48;4.70;;;4.20;;
14346;SDS011;7257;52.158;9.968;2023-03-11T01:12:10;4.45;;;3.85;;
14346;SDS011;7257;52.158;9.968;2023-03-11T01:12:51;6.20;;;5.50;;
14346;SDS011;7257;52.158;9.968;2023-03-11T01:13:13;7.50;;;5.95;;
14346;SDS011;7257;52.158;9.968;2023-03-11T01:13:34;7.68;;;5.55;;
14346;SDS011;7257;52.158;9.968;2023-03-11T01:13:55;7.63;;;5.03;;
14346;SDS011;7257;52.158;9.968;2023-03-11T01:14:17;6.20;;;4.53;;
14346;SDS011;7257;52.158;9.968;2023-03-11T01:14:38;4.88;;;4.18;;
14346;SDS011;7257;52.158;9.968;2023-03-11T01:15:00;5.63;;;3.97;;
14346;SDS011;7257;52.158;9.968;2023-03-11T01:15:22;6.13;;;4.45;;
14346;SDS011;7257;52.158;9.968;2023-03-11T01:15:45;6.00;;;4.55;;
14346;SDS011;7257;52.158;9.968;2023-03-11T01:16:06;5.38;;;4.70;;
14346;SDS011;7257;52.158;9.968;2023-03-11T01:16:28;5.97;;;4.75;;
14346;SDS011;7257;52.158;9.968;2023-03-11T01:16:49;8.27;;;4.82;;
14346;SDS011;7257;52.158;9.968;2023-03-11T01:17:10;8.18;;;4.63;;
14346;SDS011;7257;52.158;9.968;2023-03-11T01:17:30;6.15;;;4.50;;
14346;SDS011;7257;52.158;9.968;2023-03-11T01:17:51;5.03;;;4.53;;
14346;SDS011;7257;52.158;9.968;2023-03-11T01:18:13;5.25;;;4.75;;
14346;SDS011;7257;52.158;9.968;2023-03-11T01:18:35;5.10;;;4.55;;
14346;SDS011;7257;52.158;9.968;2023-03-11T01:18:56;5.30;;;4.07;;
14346;SDS011;7257;52.158;9.968;2023-03-11T01:19:17;5.07;;;4.05;;
14346;SDS011;7257;52.158;9.968;2023-03-11T01:19:38;4.95;;;4.32;;
14346;SDS011;7257;52.158;9.968;2023-03-11T01:19:59;4.90;;;4.40;;
14346;SDS011;7257;52.158;9.968;2023-03-11T01:20:20;5.15;;;4.65;;
14346;SDS011;7257;52.158;9.968;2023-03-11T01:20:42;5.60;;;4.68;;
14346;SDS011;7257;52.158;9.968;2023-03-11T01:21:03;6.43;;;5.07;;
14346;SDS011;7257;52.158;9.968;2023-03-11T01:21:24;6.22;;;4.80;;
14346;SDS011;7257;52.158;9.968;2023-03-11T01:21:48;5.40;;;4.53;;
14346;SDS011;7257;52.158;9.968;2023-03-11T01:22:10;5.03;;;4.53;;
14346;SDS011;7257;52.158;9.968;2023-03-11T01:22:31;4.95;;;4.15;;
14346;SDS011;7257;52.158;9.968;2023-03-11T01:22:52;4.50;;;3.42;;
14346;SDS011;7257;52.158;9.968;2023-03-11T01:23:13;4.50;;;3.30;;
14346;SDS011;7257;52.158;9.968;2023-03-11T01:23:37;4.25;;;3.40;;
14346;SDS011;7257;52.158;9.968;2023-03-11T01:23:58;4.13;;;3.25;;
14346;SDS011;7257;52.158;9.968;2023-03-11T01:24:19;4.50;;;3.33;;
14346;SDS011;7257;52.158;9.968;2023-03-11T01:24:40;4.70;;;3.45;;
14346;SDS011;7257;52.158;9.968;2023-03-11T01:25:02;5.05;;;3.80;;
14346;SDS011;7257;52.158;9.968;2023-03-11T01:25:23;5.10;;;3.90;;
14346;SDS011;7257;52.158;9.968;2023-03-11T01:25:44;4.82;;;3.83;;
14346;SDS011;7257;52.158;9.968;2023-03-11T01:26:05;5.13;;;4.63;;
14346;SDS011;7257;52.158;9.968;2023-03-11T01:26:27;5.57;;;4.75;;
14346;SDS011;7257;52.158;9.968;2023-03-11T01:26:48;5.57;;;4.70;;
14346;SDS011;7257;52.158;9.968;2023-03-11T01:27:10;4.90;;;3.55;;
14346;SDS011;7257;52.158;9.968;2023-03-11T01:27:31;4.13;;;3.70;;
14346;SDS011;7257;52.158;9.968;2023-03-11T01:27:52;4.13;;;3.73;;
14346;SDS011;7257;52.158;9.968;2023-03-11T01:28:13;4.22;;;3.85;;
14346;SDS011;7257;52.158;9.968;2023-03-11T01:28:34;3.60;;;3.30;;
14346;SDS011;7257;52.158;9.968;2023-03-11T01:28:55;4.20;;;3.80;;
14346;SDS011;7257;52.158;9.968;2023-03-11T01:29:16;4.68;;;4.28;;
14346;SDS011;7257;52.158;9.968;2023-03-11T01:29:38;4.85;;;4.45;;
14346;SDS011;7257;52.158;9.968;2023-03-11T01:29:59;4.47;;;3.92;;
14346;SDS011;7257;52.158;9.968;2023-03-11T01:30:21;4.60;;;3.72;;
14346;SDS011;7257;52.158;9.968;2023-03-11T01:30:43;3.97;;;3.53;;
14346;SDS011;7257;52.158;9.968;2023-03-11T01:31:05;4.88;;;3.75;;
14346;SDS011;7257;52.158;9.968;2023-03-11T01:31:27;4.80;;;3.58;;
14346;SDS011;7257;52.158;9.968;2023-03-11T01:31:48;4.03;;;3.10;;
14346;SDS011;7257;52.158;9.968;2023-03-11T01:32:10;3.30;;;3.00;;
14346;SDS011;7257;52.158;9.968;2023-03-11T01:32:31;3.40;;;3.10;;
14346;SDS011;7257;52.158;9.968;2023-03-11T01:32:54;3.67;;;3.28;;
14346;SDS011;7257;52.158;9.968;2023-03-11T01:33:17;3.88;;;3.38;;
14346;SDS011;7257;52.158;9.968;2023-03-11T01:33:38;3.30;;;2.80;;
14346;SDS011;7257;52.158;9.968;2023-03-11T01:34:00;3.15;;;2.47;;
14346;SDS011;7257;52.158;9.968;2023-03-11T01:34:21;2.90;;;2.30;;
14346;SDS011;7257;52.158;9.968;2023-03-11T01:34:42;3.17;;;2.50;;
14346;SDS011;7257;52.158;9.968;2023-03-11T01:35:03;3.75;;;2.50;;
14346;SDS011;7257;52.158;9.968;2023-03-11T01:35:25;3.30;;;2.50;;
14346;SDS011;7257;52.158;9.968;2023-03-11T01:35:48;2.80;;;2.45;;
14346;SDS011;7257;52.158;9.968;2023-03-11T01:36:09;3.42;;;2.72;;
14346;SDS011;7257;52.158;9.968;2023-03-11T01:36:30;3.70;;;2.97;;
14346;SDS011;7257;52.158;9.968;2023-03-11T01:36:51;4.00;;;3.28;;
14346;SDS011;7257;52.158;9.968;2023-03-11T01:37:13;3.55;;;3.22;;
14346;SDS011;7257;52.158;9.968;2023-03-11T01:37:34;3.95;;;3.33;;
14346;SDS011;7257;52.158;9.968;2023-03-11T01:37:55;4.28;;;3.42;;
14346;SDS011;7257;52.158;9.968;2023-03-11T01:38:17;4.53;;;3.35;;
14346;SDS011;7257;52.158;9.968;2023-03-11T01:38:38;3.20;;;2.70;;
14346;SDS011;7257;52.158;9.968;2023-03-11T01:38:59;2.92;;;2.50;;
14346;SDS011;7257;52.158;9.968;2023-03-11T01:39:20;2.67;;;2.30;;
14346;SDS011;7257;52.158;9.968;2023-03-11T01:39:42;2.85;;;2.53;;
14346;SDS011;7257;52.158;9.968;2023-03-11T01:40:03;3.03;;;2.72;;
14346;SDS011;7257;52.158;9.968;2023-03-11T01:40:27;3.05;;;2.75;;
14346;SDS011;7257;52.158;9.968;2023-03-11T01:40:50;3.15;;;2.50;;
14346;SDS011;7257;52.158;9.968;2023-03-11T01:41:12;3.22;;;2.70;;
14346;SDS011;7257;52.158;9.968;2023-03-11T01:41:33;4.35;;;2.92;;
14346;SDS011;7257;52.158;9.968;2023-03-11T01:41:54;4.97;;;3.58;;
14346;SDS011;7257;52.158;9.968;2023-03-11T01:42:16;5.57;;;4.13;;
14346;SDS011;7257;52.158;9.968;2023-03-11T01:42:37;4.28;;;3.88;;
14346;SDS011;7257;52.158;9.968;2023-03-11T01:42:59;3.55;;;3.00;;
14346;SDS011;7257;52.158;9.968;2023-03-11T01:44:09;3.03;;;2.20;;
14346;SDS011;7257;52.158;9.968;2023-03-11T01:44:30;3.15;;;2.50;;
14346;SDS011;7257;52.158;9.968;2023-03-11T01:44:52;3.35;;;2.60;;
14346;SDS011;7257;52.158;9.968;2023-03-11T01:46:21;2.60;;;2.40;;
14346;SDS011;7257;52.158;9.968;2023-03-11T01:47:42;3.30;;;2.70;;
14346;SDS011;7257;52.158;9.968;2023-03-11T01:48:03;3.00;;;2.70;;
14346;SDS011;7257;52.158;9.968;2023-03-11T01:48:25;2.95;;;2.63;;
14346;SDS011;7257;52.158;9.968;2023-03-11T01:48:46;4.53;;;2.80;;
14346;SDS011;7257;52.158;9.968;2023-03-11T01:49:10;5.35;;;3.20;;
14346;SDS011;7257;52.158;9.968;2023-03-11T01:49:32;5.75;;;3.83;;
14346;SDS011;7257;52.158;9.968;2023-03-11T01:49:53;4.85;;;4.22;;
14346;SDS011;7257;52.158;9.968;2023-03-11T01:50:14;4.75;;;4.25;;
14346;SDS011;7257;52.158;9.968;2023-03-11T01:50:37;4.28;;;3.60;;
14346;SDS011;7257;52.158;9.968;2023-03-11T01:51:00;4.35;;;3.50;;
14346;SDS011;7257;52.158;9.968;2023-03-11T01:51:24;4.22;;;3.60;;
14346;SDS011;7257;52.158;9.968;2023-03-11T01:51:48;4.13;;;3.72;;
14346;SDS011;7257;52.158;9.968;2023-03-11T01:52:12;3.90;;;3.30;;
14346;SDS011;7257;52.158;9.968;2023-03-11T01:52:33;3.30;;;2.73;;
14346;SDS011;7257;52.158;9.968;2023-03-11T01:52:56;3.40;;;3.10;;
14346;SDS011;7257;52.158;9.968;2023-03-11T01:53:17;3.50;;;3.20;;
14346;SDS011;7257;52.158;9.968;2023-03-11T01:53:38;3.78;;;3.22;;
14346;SDS011;7257;52.158;9.968;2023-03-11T01:53:59;3.67;;;2.88;;
14346;SDS011;7257;52.158;9.968;2023-03-11T01:54:26;3.50;;;2.83;;
14346;SDS011;7257;52.158;9.968;2023-03-11T01:54:49;2.85;;;2.55;;
14346;SDS011;7257;52.158;9.968;2023-03-11T01:55:10;3.03;;;2.72;;
14346;SDS011;7257;52.158;9.968;2023-03-11T01:55:32;3.40;;;3.10;;
14346;SDS011;7257;52.158;9.968;2023-03-11T01:55:53;4.20;;;3.45;;
14346;SDS011;7257;52.158;9.968;2023-03-11T01:56:16;4.60;;;3.22;;
14346;SDS011;7257;52.158;9.968;2023-03-11T01:56:37;6.13;;;3.83;;
14346;SDS011;7257;52.158;9.968;2023-03-11T01:56:59;5.75;;;3.92;;
14346;SDS011;7257;52.158;9.968;2023-03-11T01:57:22;4.85;;;3.55;;
14346;SDS011;7257;52.158;9.968;2023-03-11T01:57:44;3.25;;;2.90;;
14346;SDS011;7257;52.158;9.968;2023-03-11T01:58:07;3.70;;;3.28;;
14346;SDS011;7257;52.158;9.968;2023-03-11T01:58:34;4.45;;;3.60;;
14346;SDS011;7257;52.158;9.968;2023-03-11T01:58:57;4.90;;;3.50;;
14346;SDS011;7257;52.158;9.968;2023-03-11T01:59:20;4.68;;;3.42;;
14346;SDS011;7257;52.158;9.968;2023-03-11T01:59:43;3.38;;;3.08;;
14346;SDS011;7257;52.158;9.968;2023-03-11T02:00:10;3.47;;;3.17;;
14346;SDS011;7257;52.158;9.968;2023-03-11T02:00:34;4.53;;;3.40;;
14346;SDS011;7257;52.158;9.968;2023-03-11T02:00:57;4.43;;;3.00;;
14346;SDS011;7257;52.158;9.968;2023-03-11T02:01:20;4.47;;;3.10;;
14346;SDS011;7257;52.158;9.968;2023-03-11T02:01:44;4.45;;;3.05;;
14346;SDS011;7257;52.158;9.968;2023-03-11T02:02:19;3.88;;;2.90;;
14346;SDS011;7257;52.158;9.968;2023-03-11T02:02:45;3.40;;;3.08;;
14346;SDS011;7257;52.158;9.968;2023-03-11T02:03:09;3.75;;;3.35;;
14346;SDS011;7257;52.158;9.968;2023-03-11T02:03:35;3.90;;;3.10;;
14346;SDS011;7257;52.158;9.968;2023-03-11T02:04:01;3.17;;;2.33;;
14346;SDS011;7257;52.158;9.968;2023-03-11T02:04:22;2.80;;;2.50;;
14346;SDS011;7257;52.158;9.968;2023-03-11T02:04:43;2.60;;;2.40;;
14346;SDS011;7257;52.158;9.968;2023-03-11T02:05:04;3.20;;;2.90;;
14346;SDS011;7257;52.158;9.968;2023-03-11T02:05:26;3.58;;;3.28;;
14346;SDS011;7257;52.158;9.968;2023-03-11T02:05:48;4.00;;;3.63;;
14346;SDS011;7257;52.158;9.968;2023-03-11T02:06:11;3.85;;;3.47;;
14346;SDS011;7257;52.158;9.968;2023-03-11T02:06:35;3.60;;;3.30;;
14346;SDS011;7257;52.158;9.968;2023-03-11T02:06:57;3.45;;;3.15;;
14346;SDS011;7257;52.158;9.968;2023-03-11T02:07:18;3.33;;;3.00;;
14346;SDS011;7257;52.158;9.968;2023-03-11T02:07:39;3.70;;;2.60;;
14346;SDS011;7257;52.158;9.968;2023-03-11T02:08:00;3.53;;;2.20;;
14346;SDS011;7257;52.158;9.968;2023-03-11T02:08:22;4.05;;;2.40;;
14346;SDS011;7257;52.158;9.968;2023-03-11T02:08:44;3.95;;;2.80;;
14346;SDS011;7257;52.158;9.968;2023-03-11T02:09:06;4.35;;;3.55;;
14346;SDS011;7257;52.158;9.968;2023-03-11T02:09:27;4.47;;;3.47;;
14346;SDS011;7257;52.158;9.968;2023-03-11T02:09:48;4.22;;;3.03;;
14346;SDS011;7257;52.158;9.968;2023-03-11T02:10:10;3.75;;;2.47;;
14346;SDS011;7257;52.158;9.968;2023-03-11T02:10:32;3.00;;;2.50;;
14346;SDS011;7257;52.158;9.968;2023-03-11T02:10:53;4.10;;;3.00;;
14346;SDS011;7257;52.158;9.968;2023-03-11T02:11:16;4.35;;;3.20;;
14346;SDS011;7257;52.158;9.968;2023-03-11T02:11:42;4.75;;;3.20;;
14346;SDS011;7257;52.158;9.968;2023-03-11T02:12:04;4.23;;;2.83;;
14346;SDS011;7257;52.158;9.968;2023-03-11T02:12:29;3.83;;;2.90;;
14346;SDS011;7257;52.158;9.968;2023-03-11T02:12:54;4.03;;;3.00;;
14346;SDS011;7257;52.158;9.968;2023-03-11T02:13:16;4.35;;;3.40;;
14346;SDS011;7257;52.158;9.968;2023-03-11T02:13:39;4.40;;;3.53;;
14346;SDS011;7257;52.158;9.968;2023-03-11T02:14:01;4.38;;;3.30;;
14346;SDS011;7257;52.158;9.968;2023-03-11T02:14:25;3.92;;;3.20;;
14346;SDS011;7257;52.158;9.968;2023-03-11T02:14:49;4.05;;;3.40;;
14346;SDS011;7257;52.158;9.968;2023-03-11T02:15:12;4.30;;;3.50;;
14346;SDS011;7257;52.158;9.968;2023-03-11T02:15:34;4.55;;;3.08;;
14346;SDS011;7257;52.158;9.968;2023-03-11T02:15:55;4.05;;;3.25;;
14346;SDS011;7257;52.158;9.968;2023-03-11T02:16:19;4.32;;;3.33;;
14346;SDS011;7257;52.158;9.968;2023-03-11T02:16:40;4.22;;;3.83;;
14346;SDS011;7257;52.158;9.968;2023-03-11T02:17:02;4.40;;;3.90;;